EVA316 RCTP-YBBN
Flight info
| Callsign | EVA316 |
|---|---|
| Flight time | N/A |
| Altitude | 31000 |
| Route | KUDOS1A KUDOS R595 SEDKU/N0506F330 R595 TUNTO/N0508F350 DCT 21N131E 15N133E 09N135E 0330N13700E 01S139E 03S140E/N0496F370 DCT KADAB DCT LIDIT R204 CS Y177 BN |
| Aircraft | B77W/H-SDE1E2E3FGHIJ2J3J5M1P2RWY/LB1D1 |
Departure
| Time | N/A |
|---|---|
| Airport | Taiwan Taoyuan International Airport (RCTP) |
Arrival
| Time | 2026-05-04 02:25 |
|---|---|
| Airport | Brisbane International Airport (YBBN) |
| Time | Latitude | Longitude | Altitude | Speed | Heading |
|---|---|---|---|---|---|
| 2026-05-04 01:34 | -22.75753 | 149.46355 | 35102 ft | 525 kts | 155° |
| 2026-05-04 01:35 | -22.82084 | 149.50312 | 35099 ft | 526 kts | 155° |
| 2026-05-04 01:35 | -22.88421 | 149.54281 | 35093 ft | 527 kts | 155° |
| 2026-05-04 01:36 | -22.94732 | 149.58246 | 35090 ft | 527 kts | 155° |
| 2026-05-04 01:36 | -23.01056 | 149.62221 | 35094 ft | 527 kts | 155° |
| 2026-05-04 01:37 | -23.07398 | 149.66213 | 35087 ft | 527 kts | 155° |
| 2026-05-04 01:37 | -23.13729 | 149.70212 | 35095 ft | 527 kts | 155° |
| 2026-05-04 01:38 | -23.18999 | 149.73541 | 35084 ft | 527 kts | 155° |
| 2026-05-04 01:38 | -23.25336 | 149.77552 | 35095 ft | 527 kts | 155° |
| 2026-05-04 01:39 | -23.32538 | 149.82116 | 35083 ft | 527 kts | 154° |
| 2026-05-04 01:39 | -23.37847 | 149.85485 | 35088 ft | 527 kts | 154° |
| 2026-05-04 01:40 | -23.44180 | 149.89506 | 35098 ft | 528 kts | 155° |
| 2026-05-04 01:40 | -23.50525 | 149.93539 | 35091 ft | 528 kts | 155° |
| 2026-05-04 01:41 | -23.56870 | 149.97577 | 35086 ft | 528 kts | 155° |
| 2026-05-04 01:41 | -23.63211 | 150.01617 | 35087 ft | 528 kts | 155° |
| 2026-05-04 01:42 | -23.69554 | 150.05663 | 35084 ft | 528 kts | 155° |
| 2026-05-04 01:42 | -23.75850 | 150.09684 | 35103 ft | 529 kts | 155° |
| 2026-05-04 01:43 | -23.82201 | 150.13744 | 35086 ft | 529 kts | 155° |
| 2026-05-04 01:43 | -23.88553 | 150.17810 | 35094 ft | 529 kts | 155° |
| 2026-05-04 01:44 | -23.94901 | 150.21877 | 35089 ft | 529 kts | 155° |
| 2026-05-04 01:44 | -24.01246 | 150.25948 | 35090 ft | 529 kts | 155° |
| 2026-05-04 01:45 | -24.07588 | 150.30021 | 35094 ft | 529 kts | 155° |
| 2026-05-04 01:45 | -24.17115 | 150.36149 | 35090 ft | 530 kts | 155° |
| 2026-05-04 01:46 | -24.23467 | 150.40241 | 35091 ft | 530 kts | 155° |
| 2026-05-04 01:46 | -24.29821 | 150.44339 | 35090 ft | 530 kts | 155° |
| 2026-05-04 01:47 | -24.36173 | 150.48441 | 35107 ft | 530 kts | 155° |
| 2026-05-04 01:47 | -24.42543 | 150.52559 | 35092 ft | 531 kts | 155° |
| 2026-05-04 01:48 | -24.48779 | 150.56596 | 35095 ft | 532 kts | 155° |
| 2026-05-04 01:48 | -24.54929 | 150.60913 | 35099 ft | 535 kts | 152° |
| 2026-05-04 01:49 | -24.61090 | 150.65462 | 35098 ft | 535 kts | 151° |
| 2026-05-04 01:49 | -24.67252 | 150.70016 | 35096 ft | 535 kts | 151° |
| 2026-05-04 01:50 | -24.73441 | 150.74557 | 35105 ft | 535 kts | 152° |
| 2026-05-04 01:50 | -24.79642 | 150.79095 | 35100 ft | 535 kts | 152° |
| 2026-05-04 01:51 | -24.85829 | 150.83629 | 35092 ft | 534 kts | 152° |
| 2026-05-04 01:51 | -24.92001 | 150.88159 | 35106 ft | 533 kts | 152° |
| 2026-05-04 01:52 | -24.98168 | 150.92691 | 35109 ft | 533 kts | 152° |
| 2026-05-04 01:52 | -25.04256 | 150.97171 | 35115 ft | 533 kts | 152° |
| 2026-05-04 01:53 | -25.10441 | 151.01729 | 35106 ft | 534 kts | 152° |
| 2026-05-04 01:53 | -25.16620 | 151.06288 | 35102 ft | 534 kts | 152° |
| 2026-05-04 01:54 | -25.22802 | 151.10854 | 35109 ft | 534 kts | 152° |
| 2026-05-04 01:54 | -25.28974 | 151.15420 | 35107 ft | 534 kts | 152° |
| 2026-05-04 01:55 | -25.35109 | 151.19963 | 35111 ft | 535 kts | 152° |
| 2026-05-04 01:55 | -25.41291 | 151.24546 | 35104 ft | 535 kts | 152° |
| 2026-05-04 01:56 | -25.47474 | 151.29138 | 35079 ft | 535 kts | 152° |
| 2026-05-04 01:56 | -25.53650 | 151.33733 | 35112 ft | 535 kts | 152° |
| 2026-05-04 01:57 | -25.59827 | 151.38325 | 35110 ft | 535 kts | 152° |
| 2026-05-04 01:57 | -25.66000 | 151.42928 | 35104 ft | 535 kts | 152° |
| 2026-05-04 01:58 | -25.72186 | 151.47544 | 35100 ft | 536 kts | 152° |
| 2026-05-04 01:58 | -25.75240 | 151.49948 | 34659 ft | 547 kts | 147° |
| 2026-05-04 01:58 | -25.78188 | 151.52710 | 33828 ft | 556 kts | 143° |
| 2026-05-04 01:59 | -25.81054 | 151.55575 | 33182 ft | 553 kts | 142° |
| 2026-05-04 01:59 | -25.83874 | 151.58445 | 32674 ft | 547 kts | 141° |
| 2026-05-04 01:59 | -25.86671 | 151.61293 | 32172 ft | 542 kts | 141° |
| 2026-05-04 01:59 | -25.89442 | 151.64094 | 31679 ft | 537 kts | 141° |
| 2026-05-04 02:00 | -25.92202 | 151.66861 | 31216 ft | 532 kts | 142° |
| 2026-05-04 02:00 | -25.94948 | 151.69597 | 30718 ft | 528 kts | 141° |
| 2026-05-04 02:00 | -25.97674 | 151.72305 | 30249 ft | 524 kts | 141° |
| 2026-05-04 02:00 | -26.00388 | 151.75000 | 29669 ft | 521 kts | 141° |
| 2026-05-04 02:01 | -26.03079 | 151.77675 | 29154 ft | 517 kts | 141° |
| 2026-05-04 02:01 | -26.05747 | 151.80329 | 28624 ft | 513 kts | 141° |
| 2026-05-04 02:01 | -26.08391 | 151.82964 | 28126 ft | 508 kts | 141° |
| 2026-05-04 02:01 | -26.11014 | 151.85580 | 27639 ft | 504 kts | 141° |
| 2026-05-04 02:02 | -26.13578 | 151.88141 | 27158 ft | 500 kts | 141° |
| 2026-05-04 02:02 | -26.16155 | 151.90715 | 26683 ft | 496 kts | 141° |
| 2026-05-04 02:02 | -26.18754 | 151.93313 | 26202 ft | 493 kts | 141° |
| 2026-05-04 02:02 | -26.21295 | 151.95855 | 25723 ft | 490 kts | 141° |
| 2026-05-04 02:03 | -26.23783 | 151.98345 | 25241 ft | 487 kts | 141° |
| 2026-05-04 02:03 | -26.26297 | 152.00862 | 24764 ft | 484 kts | 141° |
| 2026-05-04 02:03 | -26.28797 | 152.03366 | 24279 ft | 482 kts | 141° |
| 2026-05-04 02:03 | -26.31278 | 152.05854 | 23806 ft | 479 kts | 140° |
| 2026-05-04 02:04 | -26.33745 | 152.08329 | 23272 ft | 477 kts | 140° |
| 2026-05-04 02:04 | -26.36207 | 152.10800 | 22751 ft | 473 kts | 140° |
| 2026-05-04 02:04 | -26.38639 | 152.13242 | 22256 ft | 469 kts | 140° |
| 2026-05-04 02:04 | -26.41055 | 152.15671 | 21789 ft | 465 kts | 140° |
| 2026-05-04 02:05 | -26.43449 | 152.18079 | 21320 ft | 462 kts | 140° |
| 2026-05-04 02:05 | -26.45825 | 152.20470 | 20848 ft | 458 kts | 140° |
| 2026-05-04 02:05 | -26.48184 | 152.22845 | 20394 ft | 455 kts | 140° |
| 2026-05-04 02:05 | -26.50527 | 152.25204 | 19924 ft | 452 kts | 140° |
| 2026-05-04 02:06 | -26.52851 | 152.27546 | 19457 ft | 449 kts | 139° |
| 2026-05-04 02:06 | -26.55168 | 152.29880 | 18998 ft | 447 kts | 139° |
| 2026-05-04 02:06 | -26.57469 | 152.32204 | 18520 ft | 445 kts | 139° |
| 2026-05-04 02:06 | -26.59766 | 152.34526 | 17993 ft | 444 kts | 139° |
| 2026-05-04 02:07 | -26.62048 | 152.36833 | 17495 ft | 441 kts | 139° |
| 2026-05-04 02:07 | -26.64306 | 152.39121 | 17023 ft | 438 kts | 139° |
| 2026-05-04 02:07 | -26.66543 | 152.41416 | 16543 ft | 434 kts | 138° |
| 2026-05-04 02:07 | -26.68753 | 152.43701 | 16078 ft | 432 kts | 138° |
| 2026-05-04 02:08 | -26.70947 | 152.45976 | 15614 ft | 429 kts | 138° |
| 2026-05-04 02:08 | -26.73130 | 152.48240 | 15134 ft | 426 kts | 137° |
| 2026-05-04 02:08 | -26.75296 | 152.50485 | 14660 ft | 424 kts | 137° |
| 2026-05-04 02:08 | -26.77459 | 152.52726 | 14166 ft | 422 kts | 137° |
| 2026-05-04 02:09 | -26.79610 | 152.54953 | 13655 ft | 420 kts | 137° |
| 2026-05-04 02:09 | -26.81735 | 152.57153 | 13230 ft | 413 kts | 137° |
| 2026-05-04 02:09 | -26.83798 | 152.59294 | 12662 ft | 394 kts | 137° |
| 2026-05-04 02:09 | -26.85758 | 152.61329 | 12199 ft | 376 kts | 137° |
| 2026-05-04 02:10 | -26.87632 | 152.63275 | 11765 ft | 359 kts | 137° |
| 2026-05-04 02:10 | -26.89429 | 152.65133 | 11341 ft | 345 kts | 137° |
| 2026-05-04 02:10 | -26.91158 | 152.66917 | 10947 ft | 331 kts | 138° |
| 2026-05-04 02:10 | -26.92797 | 152.68608 | 10795 ft | 310 kts | 137° |
| 2026-05-04 02:11 | -26.94329 | 152.70190 | 10644 ft | 290 kts | 138° |
| 2026-05-04 02:11 | -26.95774 | 152.71684 | 10470 ft | 278 kts | 138° |
| 2026-05-04 02:11 | -26.97185 | 152.73139 | 10325 ft | 276 kts | 138° |
| 2026-05-04 02:11 | -26.98607 | 152.74585 | 10248 ft | 272 kts | 139° |
| 2026-05-04 02:12 | -26.99900 | 152.76055 | 9915 ft | 259 kts | 122° |
| 2026-05-04 02:12 | -27.00632 | 152.77852 | 9371 ft | 251 kts | 111° |
| 2026-05-04 02:12 | -27.01266 | 152.79632 | 9034 ft | 235 kts | 112° |
| 2026-05-04 02:12 | -27.01877 | 152.81291 | 9082 ft | 228 kts | 112° |
| 2026-05-04 02:13 | -27.02494 | 152.82957 | 9098 ft | 237 kts | 112° |
| 2026-05-04 02:13 | -27.03141 | 152.84701 | 8714 ft | 243 kts | 112° |
| 2026-05-04 02:13 | -27.03788 | 152.86442 | 8483 ft | 240 kts | 112° |
| 2026-05-04 02:13 | -27.04425 | 152.88157 | 8193 ft | 237 kts | 112° |
| 2026-05-04 02:14 | -27.05051 | 152.89841 | 7955 ft | 229 kts | 112° |
| 2026-05-04 02:14 | -27.05659 | 152.91475 | 7651 ft | 227 kts | 111° |
| 2026-05-04 02:14 | -27.06261 | 152.93092 | 7371 ft | 222 kts | 112° |
| 2026-05-04 02:14 | -27.06850 | 152.94675 | 7114 ft | 217 kts | 112° |
| 2026-05-04 02:15 | -27.07407 | 152.96229 | 6860 ft | 212 kts | 106° |
| 2026-05-04 02:15 | -27.07774 | 152.97826 | 6628 ft | 211 kts | 101° |
| 2026-05-04 02:15 | -27.08089 | 152.99450 | 6375 ft | 215 kts | 101° |
| 2026-05-04 02:15 | -27.08409 | 153.01090 | 6115 ft | 216 kts | 101° |
| 2026-05-04 02:16 | -27.08735 | 153.02735 | 5838 ft | 216 kts | 102° |
| 2026-05-04 02:16 | -27.09062 | 153.04350 | 5576 ft | 215 kts | 102° |
| 2026-05-04 02:16 | -27.09394 | 153.05977 | 5305 ft | 213 kts | 102° |
| 2026-05-04 02:16 | -27.09725 | 153.07584 | 5061 ft | 209 kts | 102° |
| 2026-05-04 02:17 | -27.10053 | 153.09181 | 4791 ft | 205 kts | 103° |
| 2026-05-04 02:17 | -27.10367 | 153.10707 | 4549 ft | 201 kts | 102° |
| 2026-05-04 02:17 | -27.10599 | 153.12245 | 4296 ft | 203 kts | 88° |
| 2026-05-04 02:17 | -27.10395 | 153.13831 | 4086 ft | 208 kts | 81° |
| 2026-05-04 02:18 | -27.10184 | 153.15456 | 3825 ft | 212 kts | 83° |
| 2026-05-04 02:18 | -27.09983 | 153.17112 | 3570 ft | 219 kts | 83° |
| 2026-05-04 02:18 | -27.09802 | 153.18866 | 3296 ft | 234 kts | 90° |
| 2026-05-04 02:18 | -27.09889 | 153.20671 | 3146 ft | 229 kts | 97° |
| 2026-05-04 02:19 | -27.10367 | 153.22347 | 3050 ft | 229 kts | 124° |
| 2026-05-04 02:19 | -27.11495 | 153.23630 | 3014 ft | 234 kts | 142° |
| 2026-05-04 02:19 | -27.12969 | 153.24268 | 2990 ft | 223 kts | 176° |
| 2026-05-04 02:19 | -27.14419 | 153.23943 | 2990 ft | 203 kts | 198° |
| 2026-05-04 02:20 | -27.15719 | 153.23423 | 2981 ft | 196 kts | 199° |
| 2026-05-04 02:20 | -27.16973 | 153.22831 | 2989 ft | 195 kts | 202° |
| 2026-05-04 02:20 | -27.18209 | 153.22165 | 3002 ft | 199 kts | 204° |
| 2026-05-04 02:20 | -27.19449 | 153.21466 | 3001 ft | 200 kts | 205° |
| 2026-05-04 02:21 | -27.20692 | 153.20757 | 2999 ft | 200 kts | 205° |
| 2026-05-04 02:21 | -27.21936 | 153.20046 | 2987 ft | 201 kts | 205° |
| 2026-05-04 02:21 | -27.23191 | 153.19330 | 2727 ft | 203 kts | 205° |
| 2026-05-04 02:21 | -27.24441 | 153.18614 | 2450 ft | 199 kts | 205° |
| 2026-05-04 02:22 | -27.25650 | 153.17923 | 2180 ft | 191 kts | 205° |
| 2026-05-04 02:22 | -27.26808 | 153.17261 | 1956 ft | 186 kts | 204° |
| 2026-05-04 02:22 | -27.27939 | 153.16615 | 1684 ft | 178 kts | 204° |
| 2026-05-04 02:22 | -27.29019 | 153.15997 | 1456 ft | 173 kts | 205° |
| 2026-05-04 02:23 | -27.30079 | 153.15391 | 1225 ft | 166 kts | 205° |
| 2026-05-04 02:23 | -27.31058 | 153.14832 | 1022 ft | 159 kts | 205° |
| 2026-05-04 02:23 | -27.32015 | 153.14284 | 830 ft | 158 kts | 204° |
| 2026-05-04 02:23 | -27.32994 | 153.13724 | 657 ft | 156 kts | 205° |
| 2026-05-04 02:24 | -27.33943 | 153.13185 | 444 ft | 158 kts | 206° |
| 2026-05-04 02:24 | -27.34895 | 153.12635 | 245 ft | 159 kts | 203° |
| 2026-05-04 02:24 | -27.35881 | 153.12072 | 47 ft | 160 kts | 204° |
| 2026-05-04 02:24 | -27.36762 | 153.11567 | 28 ft | 139 kts | 207° |
| 2026-05-04 02:25 | -27.37299 | 153.11258 | 26 ft | 112 kts | 207° |
| 2026-05-04 02:25 | -27.38026 | 153.10844 | 30 ft | 75 kts | 207° |
| 2026-05-04 02:25 | -27.38252 | 153.10752 | 29 ft | 23 kts | 164° |
| 2026-05-04 02:25 | -27.38320 | 153.10842 | 26 ft | 23 kts | 119° |
| 2026-05-04 02:26 | -27.38337 | 153.10994 | 27 ft | 19 kts | 38° |
| 2026-05-04 02:26 | -27.38222 | 153.11058 | 26 ft | 19 kts | 26° |
| 2026-05-04 02:26 | -27.38109 | 153.11122 | 27 ft | 19 kts | 27° |
| 2026-05-04 02:26 | -27.37998 | 153.11185 | 26 ft | 19 kts | 27° |
| 2026-05-04 02:27 | -27.37882 | 153.11251 | 26 ft | 19 kts | 27° |
| 2026-05-04 02:27 | -27.37768 | 153.11316 | 25 ft | 19 kts | 27° |
| 2026-05-04 02:27 | -27.37657 | 153.11380 | 22 ft | 19 kts | 27° |
| 2026-05-04 02:27 | -27.37542 | 153.11446 | 23 ft | 19 kts | 27° |
| 2026-05-04 02:28 | -27.37435 | 153.11506 | 27 ft | 19 kts | 26° |
| 2026-05-04 02:28 | -27.37334 | 153.11584 | 27 ft | 19 kts | 68° |
| 2026-05-04 02:28 | -27.37373 | 153.11717 | 26 ft | 19 kts | 116° |
| 2026-05-04 02:28 | -27.37430 | 153.11844 | 27 ft | 19 kts | 117° |
| 2026-05-04 02:29 | -27.37488 | 153.11971 | 24 ft | 19 kts | 117° |
| 2026-05-04 02:29 | -27.37544 | 153.12094 | 26 ft | 19 kts | 117° |
| 2026-05-04 02:29 | -27.37604 | 153.12227 | 24 ft | 19 kts | 117° |
| 2026-05-04 02:29 | -27.37663 | 153.12355 | 23 ft | 19 kts | 117° |
| 2026-05-04 02:30 | -27.37722 | 153.12482 | 27 ft | 19 kts | 117° |
| 2026-05-04 02:30 | -27.37780 | 153.12607 | 25 ft | 19 kts | 117° |
| 2026-05-04 02:30 | -27.37839 | 153.12737 | 25 ft | 19 kts | 117° |
| 2026-05-04 02:30 | -27.37896 | 153.12865 | 25 ft | 19 kts | 117° |
| 2026-05-04 02:31 | -27.38004 | 153.12896 | 25 ft | 19 kts | 206° |
| 2026-05-04 02:31 | -27.38119 | 153.12830 | 25 ft | 19 kts | 207° |
| 2026-05-04 02:31 | -27.38232 | 153.12765 | 25 ft | 19 kts | 207° |
| 2026-05-04 02:31 | -27.38346 | 153.12699 | 27 ft | 19 kts | 207° |
| 2026-05-04 02:32 | -27.38460 | 153.12634 | 25 ft | 19 kts | 206° |
| 2026-05-04 02:32 | -27.38573 | 153.12570 | 26 ft | 19 kts | 207° |
| 2026-05-04 02:32 | -27.38687 | 153.12504 | 26 ft | 19 kts | 207° |
| 2026-05-04 02:32 | -27.38802 | 153.12438 | 26 ft | 19 kts | 207° |
| 2026-05-04 02:33 | -27.38916 | 153.12372 | 27 ft | 19 kts | 207° |
| 2026-05-04 02:33 | -27.39031 | 153.12307 | 26 ft | 19 kts | 207° |
| 2026-05-04 02:33 | -27.39145 | 153.12241 | 26 ft | 19 kts | 207° |
| 2026-05-04 02:33 | -27.39260 | 153.12176 | 23 ft | 19 kts | 207° |
| 2026-05-04 02:34 | -27.39373 | 153.12112 | 25 ft | 19 kts | 207° |
| 2026-05-04 02:34 | -27.39488 | 153.12046 | 27 ft | 19 kts | 206° |
| 2026-05-04 02:34 | -27.39602 | 153.11982 | 25 ft | 19 kts | 207° |
| 2026-05-04 02:34 | -27.39716 | 153.11916 | 25 ft | 19 kts | 207° |
| 2026-05-04 02:35 | -27.39831 | 153.11851 | 25 ft | 19 kts | 206° |
| 2026-05-04 02:35 | -27.39943 | 153.11787 | 26 ft | 19 kts | 207° |
| 2026-05-04 02:35 | -27.40060 | 153.11721 | 25 ft | 19 kts | 206° |
| 2026-05-04 02:35 | -27.40174 | 153.11656 | 24 ft | 19 kts | 207° |
| 2026-05-04 02:36 | -27.40259 | 153.11573 | 26 ft | 17 kts | 264° |
| 2026-05-04 02:36 | -27.40282 | 153.11457 | 26 ft | 17 kts | 219° |
| 2026-05-04 02:36 | -27.40380 | 153.11398 | 27 ft | 17 kts | 206° |
| 2026-05-04 02:36 | -27.40487 | 153.11338 | 26 ft | 17 kts | 207° |
| 2026-05-04 02:37 | -27.40574 | 153.11262 | 27 ft | 17 kts | 254° |
| 2026-05-04 02:37 | -27.40550 | 153.11157 | 26 ft | 6 kts | 282° |
| 2026-05-04 02:37 | -27.40560 | 153.11114 | 24 ft | 6 kts | 252° |
| 2026-05-04 02:37 | -27.40549 | 153.11066 | 27 ft | 7 kts | 298° |
| 2026-05-04 02:38 | -27.40530 | 153.11033 | 24 ft | 1 kts | 304° |
| 2026-05-04 02:38 | -27.40525 | 153.11026 | 24 ft | 0 kts | 305° |
| 2026-05-04 02:38 | -27.40525 | 153.11025 | 23 ft | 0 kts | 305° |
| 2026-05-04 02:38 | -27.40527 | 153.11028 | 23 ft | 0 kts | 305° |